Rhourd El Adra — 7TBS — position and weather

sailwx.info

Track history (hours):
 
Tides and Currents Weather Stations Pressure Air Temp Water Temp Dewpoint Dewpoint Depression Visibility Wind Speed Wind Dir Waves Ship Positions

Rhourd El Adra

Last reported at 2016-Aug-31 13:13 UTC. Time now 2016-Sep-01 05:38 UTC.
Position N 40°28' E 001°03'.

Length 156 m; draft 7 m.

Type: Ship (hazmat cat C). MMSI: 605026210.

Date/timePositionNaut miles runAvg speedWind from/ knotsBaromVisibWave heightAir tempDewpointWater temp
2016-Aug-31 13:13N 40°28' E 001°03'1614.9
2016-Aug-31 12:10N 40°13' E 000°58'269 5.8
2016-Aug-29 13:33N 35°51' W 000°18'2 1.6
2016-Aug-29 12:25N 35°50' W 000°16'2 2.0
2016-Aug-29 11:17N 35°51' W 000°13'0 0.0
2016-Aug-29 09:32N 35°51' W 000°13'0 0.0
2016-Aug-29 03:05N 35°51' W 000°13'0 0.0
2016-Aug-28 18:06N 35°51' W 000°13'0 0.0
2016-Aug-28 17:29N 35°51' W 000°13'0 0.0
2016-Aug-28 16:26N 35°51' W 000°13'0 0.0
2016-Aug-28 15:32N 35°51' W 000°13'0 0.0
2016-Aug-28 14:29N 35°51' W 000°13'0 0.0
2016-Aug-28 12:05N 35°51' W 000°13'0 0.0
2016-Aug-28 11:29N 35°51' W 000°13'3 2.9
2016-Aug-28 10:33N 35°52' W 000°10'4 4.2
2016-Aug-28 09:34N 35°55' W 000°06'1 0.7
2016-Aug-28 08:33N 35°55' W 000°06'1 0.8
2016-Aug-28 07:33N 35°56' W 000°05'7 3.7
2016-Aug-28 05:32N 36°03' W 000°03'5 1.4
2016-Aug-28 01:32N 35°59' W 000°07'1 0.8
2016-Aug-28 00:33N 35°59' W 000°07'3 0.9
2016-Aug-27 21:22N 36°01' W 000°03'2 2.0
2016-Aug-27 20:32N 36°01' W 000°05'3 2.7
2016-Aug-27 19:33N 35°59' W 000°08'2 1.6
2016-Aug-27 18:33N 36°00' W 000°07'2 1.8
2016-Aug-27 17:26N 36°01' W 000°04'2 1.8
2016-Aug-27 16:33N 36°02' W 000°03'5 4.7
2016-Aug-27 15:24N 35°57' W 000°05'9 9.8
2016-Aug-27 14:32N 35°53' W 000°14'1 0.5
2016-Aug-27 13:15N 35°53' W 000°14'1 1.2
2016-Aug-27 12:33N 35°54' W 000°13'5 2.0
2016-Aug-27 10:10N 35°58' W 000°12'915.4
2016-Aug-27 09:33N 36°07' W 000°09'8015.3
2016-Aug-27 04:19N 37°26' E 000°12'9215.0
2016-Aug-26 22:14N 38°56' E 000°36'5514.9
2016-Aug-26 18:33N 39°49' E 000°51'1514.8
2016-Aug-26 17:33N 40°03' E 000°55'1615.1
2016-Aug-26 16:31N 40°19' E 000°60'1414.8
2016-Aug-26 15:33N 40°33' E 001°04'1514.6
2016-Aug-26 14:32N 40°47' E 001°08'19 0.4
2016-Aug-24 17:23N 41°06' E 001°13'0 0.0
2016-Aug-24 16:17N 41°06' E 001°13'0 0.1
2016-Aug-24 14:05N 41°06' E 001°13'2 3.7
2016-Aug-24 13:27N 41°04' E 001°14'2 1.9
2016-Aug-24 12:29N 41°04' E 001°16'0 0.0
2016-Aug-24 11:29N 41°04' E 001°16'0 0.0
2016-Aug-24 10:23N 41°04' E 001°16'0 0.0
2016-Aug-24 04:29N 41°04' E 001°16'0 0.0
2016-Aug-24 00:23N 41°04' E 001°16'0 0.0
2016-Aug-23 18:23N 41°04' E 001°16'0 0.0
2016-Aug-23 17:29N 41°04' E 001°16'0 0.0
2016-Aug-23 08:23N 41°04' E 001°16'10 0.7
2016-Aug-22 18:14N 40°55' E 001°11'1214.8
2016-Aug-22 17:26N 40°43' E 001°07'1315.2
2016-Aug-22 16:33N 40°30' E 001°03'1515.2
2016-Aug-22 15:33N 40°15' E 000°59'  
Track history (hours):
 
Tides and Currents Weather Stations Pressure Air Temp Water Temp Dewpoint Dewpoint Depression Visibility Wind Speed Wind Dir Waves Ship Positions

Rhourd El Adra

Last reported at 2016-Aug-31 13:13 UTC. Time now 2016-Sep-01 05:38 UTC.
Position N 40°28' E 001°03'.

Length 156 m; draft 7 m.

Type: Ship (hazmat cat C). MMSI: 605026210.

Date/timePositionNaut miles runAvg speedWind from/ knotsBaromVisibWave heightAir tempDewpointWater temp
2016-Aug-31 13:13N 40°28' E 001°03'1614.9
2016-Aug-31 12:10N 40°13' E 000°58'269 5.8
2016-Aug-29 13:33N 35°51' W 000°18'2 1.6
2016-Aug-29 12:25N 35°50' W 000°16'2 2.0
2016-Aug-29 11:17N 35°51' W 000°13'0 0.0
2016-Aug-29 09:32N 35°51' W 000°13'0 0.0
2016-Aug-29 03:05N 35°51' W 000°13'0 0.0
2016-Aug-28 18:06N 35°51' W 000°13'0 0.0
2016-Aug-28 17:29N 35°51' W 000°13'0 0.0
2016-Aug-28 16:26N 35°51' W 000°13'0 0.0
2016-Aug-28 15:32N 35°51' W 000°13'0 0.0
2016-Aug-28 14:29N 35°51' W 000°13'0 0.0
2016-Aug-28 12:05N 35°51' W 000°13'0 0.0
2016-Aug-28 11:29N 35°51' W 000°13'3 2.9
2016-Aug-28 10:33N 35°52' W 000°10'4 4.2
2016-Aug-28 09:34N 35°55' W 000°06'1 0.7
2016-Aug-28 08:33N 35°55' W 000°06'1 0.8
2016-Aug-28 07:33N 35°56' W 000°05'7 3.7
2016-Aug-28 05:32N 36°03' W 000°03'5 1.4
2016-Aug-28 01:32N 35°59' W 000°07'1 0.8
2016-Aug-28 00:33N 35°59' W 000°07'3 0.9
2016-Aug-27 21:22N 36°01' W 000°03'2 2.0
2016-Aug-27 20:32N 36°01' W 000°05'3 2.7
2016-Aug-27 19:33N 35°59' W 000°08'2 1.6
2016-Aug-27 18:33N 36°00' W 000°07'2 1.8
2016-Aug-27 17:26N 36°01' W 000°04'2 1.8
2016-Aug-27 16:33N 36°02' W 000°03'5 4.7
2016-Aug-27 15:24N 35°57' W 000°05'9 9.8
2016-Aug-27 14:32N 35°53' W 000°14'1 0.5
2016-Aug-27 13:15N 35°53' W 000°14'1 1.2
2016-Aug-27 12:33N 35°54' W 000°13'5 2.0
2016-Aug-27 10:10N 35°58' W 000°12'915.4
2016-Aug-27 09:33N 36°07' W 000°09'8015.3
2016-Aug-27 04:19N 37°26' E 000°12'9215.0
2016-Aug-26 22:14N 38°56' E 000°36'5514.9
2016-Aug-26 18:33N 39°49' E 000°51'1514.8
2016-Aug-26 17:33N 40°03' E 000°55'1615.1
2016-Aug-26 16:31N 40°19' E 000°60'1414.8
2016-Aug-26 15:33N 40°33' E 001°04'1514.6
2016-Aug-26 14:32N 40°47' E 001°08'19 0.4
2016-Aug-24 17:23N 41°06' E 001°13'0 0.0
2016-Aug-24 16:17N 41°06' E 001°13'0 0.1
2016-Aug-24 14:05N 41°06' E 001°13'2 3.7
2016-Aug-24 13:27N 41°04' E 001°14'2 1.9
2016-Aug-24 12:29N 41°04' E 001°16'0 0.0
2016-Aug-24 11:29N 41°04' E 001°16'0 0.0
2016-Aug-24 10:23N 41°04' E 001°16'0 0.0
2016-Aug-24 04:29N 41°04' E 001°16'0 0.0
2016-Aug-24 00:23N 41°04' E 001°16'0 0.0
2016-Aug-23 18:23N 41°04' E 001°16'0 0.0
2016-Aug-23 17:29N 41°04' E 001°16'0 0.0
2016-Aug-23 08:23N 41°04' E 001°16'10 0.7
2016-Aug-22 18:14N 40°55' E 001°11'1214.8
2016-Aug-22 17:26N 40°43' E 001°07'1315.2
2016-Aug-22 16:33N 40°30' E 001°03'1515.2
2016-Aug-22 15:33N 40°15' E 000°59'  

Dump ship's entire track history